Time;durP1;ratioP1;P1;durP2;ratioP2;P2;SDS_P1;SDS_P2;PMS_P1;PMS_P2;Temp;Humidity;BMP_temperature;BMP_pressure;BME280_temperature;BME280_humidity;BME280_pressure;Samples;Min_cycle;Max_cycle;Signal;HPM_P1;HPM_P2
2021/12/27 00:02:24;;;;;;;56.25;31.08;;;;;;;;;;5137227;28;20204;-72
2021/12/27 00:04:51;;;;;;;70.68;34.20;;;;;;;;;;5138180;27;20291;-71
2021/12/27 00:07:18;;;;;;;56.55;31.75;;;;;;;;;;5142133;27;20212;-72
2021/12/27 00:09:48;;;;;;;60.28;32.55;;;;;;;;;;5142104;27;20588;-73
2021/12/27 00:12:16;;;;;;;60.70;31.80;;;;;;;;;;5141905;27;20200;-71
2021/12/27 00:14:43;;;;;;;58.13;32.08;;;;;;;;;;5142208;27;20204;-72
2021/12/27 00:17:11;;;;;;;61.53;32.05;;;;;;;;;;5141372;27;20211;-72
2021/12/27 00:19:40;;;;;;;65.57;32.20;;;;;;;;;;5141453;27;20265;-72
2021/12/27 00:22:08;;;;;;;63.90;34.33;;;;;;;;;;5141787;27;20260;-72
2021/12/27 00:24:35;;;;;;;60.67;32.95;;;;;;;;;;5141308;27;20608;-72
2021/12/27 00:27:03;;;;;;;54.33;31.23;;;;;;;;;;5140874;27;20615;-72
2021/12/27 00:29:31;;;;;;;50.35;30.05;;;;;;;;;;5140770;27;20249;-72
2021/12/27 00:31:58;;;;;;;56.13;31.38;;;;;;;;;;5141105;27;20318;-72
2021/12/27 00:34:26;;;;;;;59.58;31.77;;;;;;;;;;5140775;27;20201;-71
2021/12/27 00:36:58;;;;;;;59.47;32.30;;;;;;;;;;5141256;27;20208;-71
2021/12/27 00:39:26;;;;;;;56.15;31.05;;;;;;;;;;5140860;27;20203;-72
2021/12/27 00:41:53;;;;;;;55.83;31.15;;;;;;;;;;5140811;27;20200;-71
2021/12/27 00:44:21;;;;;;;56.22;32.45;;;;;;;;;;5141336;27;20200;-71
2021/12/27 00:46:48;;;;;;;54.10;30.63;;;;;;;;;;5141247;27;20204;-71
2021/12/27 00:49:16;;;;;;;58.95;30.38;;;;;;;;;;5140282;27;20242;-71
2021/12/27 00:51:44;;;;;;;52.90;30.00;;;;;;;;;;5140643;27;20255;-72
2021/12/27 00:54:13;;;;;;;64.65;33.00;;;;;;;;;;5141103;27;20242;-72
2021/12/27 00:56:42;;;;;;;61.80;33.00;;;;;;;;;;5141152;27;20348;-71
2021/12/27 00:59:10;;;;;;;55.58;31.20;;;;;;;;;;5140304;27;20204;-71
2021/12/27 01:01:38;;;;;;;58.92;32.97;;;;;;;;;;5140121;27;20208;-72
2021/12/27 01:04:06;;;;;;;59.83;34.10;;;;;;;;;;5140803;27;20208;-71
2021/12/27 01:06:34;;;;;;;63.40;32.33;;;;;;;;;;5140592;27;20295;-71
2021/12/27 01:09:02;;;;;;;58.78;32.95;;;;;;;;;;5140419;27;20276;-72
2021/12/27 01:11:40;;;;;;;60.35;31.98;;;;;;;;;;5140844;27;20310;-72
2021/12/27 01:14:12;;;;;;;62.65;33.60;;;;;;;;;;5140506;27;20286;-71
2021/12/27 01:16:40;;;;;;;61.75;33.85;;;;;;;;;;5140283;27;20251;-72
2021/12/27 01:19:11;;;;;;;62.63;34.53;;;;;;;;;;5139439;27;20196;-72
2021/12/27 01:21:38;;;;;;;61.45;32.67;;;;;;;;;;5140697;27;20796;-72
2021/12/27 01:24:06;;;;;;;61.83;32.60;;;;;;;;;;5140424;27;20200;-71
2021/12/27 01:26:36;;;;;;;65.15;35.00;;;;;;;;;;5140821;27;20375;-72
2021/12/27 01:29:07;;;;;;;54.67;33.25;;;;;;;;;;5139984;27;20320;-72
2021/12/27 01:31:34;;;;;;;59.92;33.45;;;;;;;;;;5140543;27;20290;-72
2021/12/27 01:34:02;;;;;;;57.60;32.97;;;;;;;;;;5140026;27;20207;-72
2021/12/27 01:36:32;;;;;;;66.82;35.72;;;;;;;;;;5139617;27;20200;-72
2021/12/27 01:38:59;;;;;;;58.67;32.75;;;;;;;;;;5140011;27;20212;-72
2021/12/27 01:41:27;;;;;;;63.83;33.10;;;;;;;;;;5140012;27;20214;-71
2021/12/27 01:43:57;;;;;;;65.45;33.28;;;;;;;;;;5139934;27;20254;-72
2021/12/27 01:46:26;;;;;;;59.72;35.55;;;;;;;;;;5139545;27;20226;-71
2021/12/27 01:48:56;;;;;;;64.38;35.08;;;;;;;;;;5139054;27;20227;-71
2021/12/27 01:51:25;;;;;;;63.03;34.22;;;;;;;;;;5139590;27;20295;-72
2021/12/27 01:53:53;;;;;;;60.55;35.45;;;;;;;;;;5139270;27;20207;-71
2021/12/27 01:56:22;;;;;;;59.70;33.38;;;;;;;;;;5140047;27;20265;-71
2021/12/27 01:58:50;;;;;;;59.28;33.45;;;;;;;;;;5139879;27;20200;-72
2021/12/27 02:01:19;;;;;;;54.90;31.92;;;;;;;;;;5139559;27;20606;-72
2021/12/27 02:03:47;;;;;;;60.50;33.63;;;;;;;;;;5139542;27;20580;-72
2021/12/27 02:06:15;;;;;;;55.08;31.40;;;;;;;;;;5139220;27;20245;-72
2021/12/27 02:08:43;;;;;;;60.53;32.88;;;;;;;;;;5139335;27;20224;-71
2021/12/27 02:11:12;;;;;;;53.83;32.63;;;;;;;;;;5138723;27;20211;-71
2021/12/27 02:13:43;;;;;;;55.58;33.83;;;;;;;;;;5139347;27;20204;-71
2021/12/27 02:16:11;;;;;;;59.08;33.60;;;;;;;;;;5138656;27;20531;-71
2021/12/27 02:18:40;;;;;;;65.80;34.22;;;;;;;;;;5138755;27;20197;-72
2021/12/27 02:21:09;;;;;;;70.95;35.30;;;;;;;;;;5139865;27;20207;-71
2021/12/27 02:23:41;;;;;;;60.03;32.25;;;;;;;;;;5139239;27;20203;-71
2021/12/27 02:26:09;;;;;;;54.70;31.77;;;;;;;;;;5139327;27;20230;-71
2021/12/27 02:28:36;;;;;;;62.33;34.60;;;;;;;;;;5138157;27;20302;-71
2021/12/27 02:31:05;;;;;;;59.55;33.15;;;;;;;;;;5138742;27;20210;-71
2021/12/27 02:33:32;;;;;;;67.88;35.13;;;;;;;;;;5138943;27;20253;-71
2021/12/27 02:36:03;;;;;;;52.38;32.08;;;;;;;;;;5138693;27;20200;-71
2021/12/27 02:38:33;;;;;;;59.55;33.83;;;;;;;;;;5138775;27;20197;-71
2021/12/27 02:41:01;;;;;;;61.47;32.67;;;;;;;;;;5138786;27;20235;-71
2021/12/27 02:43:30;;;;;;;61.58;35.10;;;;;;;;;;5138812;27;20226;-71
2021/12/27 02:46:00;;;;;;;64.20;34.95;;;;;;;;;;5138930;27;20320;-71
2021/12/27 02:48:29;;;;;;;71.20;35.08;;;;;;;;;;5138453;27;20223;-71
2021/12/27 02:50:57;;;;;;;63.42;33.05;;;;;;;;;;5138937;27;20200;-71
2021/12/27 02:53:26;;;;;;;64.82;35.70;;;;;;;;;;5138154;27;20211;-71
2021/12/27 02:55:55;;;;;;;62.30;33.85;;;;;;;;;;5138680;27;20204;-71
2021/12/27 02:58:23;;;;;;;65.07;34.55;;;;;;;;;;5138976;27;20211;-71
2021/12/27 03:00:54;;;;;;;62.92;34.75;;;;;;;;;;5139026;27;20282;-71
2021/12/27 03:03:21;;;;;;;53.03;31.05;;;;;;;;;;5139233;27;20576;-71
2021/12/27 03:05:49;;;;;;;65.07;35.15;;;;;;;;;;5139380;27;20288;-71
2021/12/27 03:08:17;;;;;;;57.85;32.58;;;;;;;;;;5138531;27;20561;-71
2021/12/27 03:10:45;;;;;;;61.40;33.83;;;;;;;;;;5139195;27;20463;-71
2021/12/27 03:13:18;;;;;;;61.55;34.30;;;;;;;;;;5138707;27;20203;-71
2021/12/27 03:15:46;;;;;;;54.30;32.38;;;;;;;;;;5137961;27;20218;-71
2021/12/27 03:18:13;;;;;;;63.45;34.10;;;;;;;;;;5137958;27;20588;-71
2021/12/27 03:20:41;;;;;;;65.70;33.90;;;;;;;;;;5137630;27;20197;-71
2021/12/27 03:23:09;;;;;;;60.25;33.15;;;;;;;;;;5137787;27;20200;-71
2021/12/27 03:25:40;;;;;;;54.63;32.10;;;;;;;;;;5137917;27;20223;-71
2021/12/27 03:28:09;;;;;;;63.25;34.70;;;;;;;;;;5138273;27;20201;-71
2021/12/27 03:30:38;;;;;;;61.92;34.53;;;;;;;;;;5137725;27;20228;-71
2021/12/27 03:33:06;;;;;;;68.65;35.00;;;;;;;;;;5137967;27;20204;-71
2021/12/27 03:35:38;;;;;;;63.65;36.35;;;;;;;;;;5138217;27;20192;-71
2021/12/27 03:38:07;;;;;;;63.83;33.13;;;;;;;;;;5138551;27;20200;-71
2021/12/27 03:40:35;;;;;;;65.32;35.40;;;;;;;;;;5136458;27;20210;-71
2021/12/27 03:43:02;;;;;;;61.20;35.10;;;;;;;;;;5138049;27;20208;-71
2021/12/27 03:45:31;;;;;;;60.15;33.25;;;;;;;;;;5137792;27;20200;-71
2021/12/27 03:48:01;;;;;;;59.70;33.60;;;;;;;;;;5137493;27;20200;-71
2021/12/27 03:50:29;;;;;;;57.80;33.25;;;;;;;;;;5137080;27;20227;-71
2021/12/27 03:52:57;;;;;;;64.40;34.17;;;;;;;;;;5137260;27;20196;-71
2021/12/27 03:55:25;;;;;;;60.60;34.88;;;;;;;;;;5137412;27;20592;-71
2021/12/27 03:57:55;;;;;;;66.93;36.05;;;;;;;;;;5137624;27;20328;-71
2021/12/27 04:00:44;;;;;;;63.17;35.30;;;;;;;;;;5137250;28;20224;-71
2021/12/27 04:03:13;;;;;;;59.05;33.72;;;;;;;;;;5137550;28;20228;-72
2021/12/27 04:05:41;;;;;;;58.70;33.40;;;;;;;;;;5137541;28;20577;-72
2021/12/27 04:08:10;;;;;;;63.42;35.97;;;;;;;;;;5137242;28;20657;-71
2021/12/27 04:10:38;;;;;;;60.95;35.17;;;;;;;;;;5137346;28;20257;-71
2021/12/27 04:13:06;;;;;;;57.70;35.28;;;;;;;;;;5137359;28;20291;-71
2021/12/27 04:15:37;;;;;;;57.90;33.70;;;;;;;;;;5136951;28;20637;-71
2021/12/27 04:18:06;;;;;;;66.30;35.55;;;;;;;;;;5137289;28;20204;-72
2021/12/27 04:20:35;;;;;;;61.90;34.70;;;;;;;;;;5137190;28;20543;-71
2021/12/27 04:23:03;;;;;;;65.38;36.50;;;;;;;;;;5137758;28;20260;-71
2021/12/27 04:25:31;;;;;;;57.30;34.20;;;;;;;;;;5137924;28;20555;-71
2021/12/27 04:27:59;;;;;;;60.92;34.78;;;;;;;;;;5137332;28;20204;-71
2021/12/27 04:30:27;;;;;;;60.35;34.05;;;;;;;;;;5137634;28;20320;-72
2021/12/27 04:32:54;;;;;;;55.38;33.03;;;;;;;;;;5136976;28;20581;-71
2021/12/27 04:35:22;;;;;;;62.25;34.95;;;;;;;;;;5136967;28;20200;-72
2021/12/27 04:37:51;;;;;;;58.08;32.10;;;;;;;;;;5137315;28;20211;-71
2021/12/27 04:40:20;;;;;;;61.08;34.58;;;;;;;;;;5137154;28;20197;-72
2021/12/27 04:42:52;;;;;;;56.97;33.60;;;;;;;;;;5136653;28;20216;-72
2021/12/27 04:45:19;;;;;;;63.83;35.28;;;;;;;;;;5137477;28;20200;-71
2021/12/27 04:47:47;;;;;;;62.25;35.78;;;;;;;;;;5137322;28;20287;-72
2021/12/27 04:50:15;;;;;;;64.95;34.20;;;;;;;;;;5136758;27;20658;-72
2021/12/27 04:52:45;;;;;;;56.90;34.38;;;;;;;;;;5141100;27;20200;-72
2021/12/27 04:55:14;;;;;;;60.90;34.90;;;;;;;;;;5140825;27;20464;-71
2021/12/27 04:57:41;;;;;;;63.38;34.42;;;;;;;;;;5140948;27;20196;-71
2021/12/27 05:00:10;;;;;;;61.90;33.45;;;;;;;;;;5140707;27;20204;-72
2021/12/27 05:02:37;;;;;;;55.90;32.63;;;;;;;;;;5140638;27;20200;-72
2021/12/27 05:05:05;;;;;;;57.80;34.13;;;;;;;;;;5139964;27;20310;-72
2021/12/27 05:07:33;;;;;;;63.20;33.63;;;;;;;;;;5140936;27;20192;-72
2021/12/27 05:10:01;;;;;;;61.50;34.13;;;;;;;;;;5140872;27;20289;-71
2021/12/27 05:12:30;;;;;;;58.92;35.40;;;;;;;;;;5140354;27;20200;-72
2021/12/27 05:14:58;;;;;;;63.25;36.30;;;;;;;;;;5140141;27;20200;-72
2021/12/27 05:17:25;;;;;;;58.92;34.63;;;;;;;;;;5140065;27;20204;-71
2021/12/27 05:19:53;;;;;;;52.50;32.55;;;;;;;;;;5140554;27;20203;-72
2021/12/27 05:22:21;;;;;;;58.75;33.72;;;;;;;;;;5139749;27;20275;-72
2021/12/27 05:24:48;;;;;;;56.80;33.72;;;;;;;;;;5140071;27;20207;-72
2021/12/27 05:27:16;;;;;;;51.30;33.08;;;;;;;;;;5139622;27;20208;-71
2021/12/27 05:29:45;;;;;;;59.28;35.75;;;;;;;;;;5140264;27;20224;-72
2021/12/27 05:32:12;;;;;;;65.75;37.13;;;;;;;;;;5140033;27;20673;-72
2021/12/27 05:34:40;;;;;;;59.80;33.92;;;;;;;;;;5140090;27;20192;-71
2021/12/27 05:37:14;;;;;;;67.38;34.33;;;;;;;;;;5139973;27;20590;-72
2021/12/27 05:39:42;;;;;;;52.72;32.35;;;;;;;;;;5139423;27;20222;-71
2021/12/27 05:42:10;;;;;;;54.85;33.95;;;;;;;;;;5140342;27;20261;-71
2021/12/27 05:44:38;;;;;;;59.40;35.08;;;;;;;;;;5140171;27;20201;-72
2021/12/27 05:47:07;;;;;;;58.95;35.05;;;;;;;;;;5140300;27;20204;-72
2021/12/27 05:49:34;;;;;;;62.55;35.50;;;;;;;;;;5139305;27;20288;-72
2021/12/27 05:52:02;;;;;;;60.63;33.95;;;;;;;;;;5138557;27;20204;-72
2021/12/27 05:54:36;;;;;;;67.72;35.40;;;;;;;;;;5139625;27;20226;-72
2021/12/27 05:57:04;;;;;;;65.50;36.05;;;;;;;;;;5139496;27;20200;-72
2021/12/27 05:59:31;;;;;;;70.32;36.80;;;;;;;;;;5139489;27;20480;-72
2021/12/27 06:01:59;;;;;;;64.80;36.38;;;;;;;;;;5138217;27;20203;-72
2021/12/27 06:04:28;;;;;;;69.70;36.33;;;;;;;;;;5138528;27;20264;-72
2021/12/27 06:06:56;;;;;;;84.80;39.67;;;;;;;;;;5138910;27;20200;-72
2021/12/27 06:09:24;;;;;;;77.03;38.85;;;;;;;;;;5137886;27;20204;-72
2021/12/27 06:11:52;;;;;;;86.07;41.67;;;;;;;;;;5138226;27;20204;-72
2021/12/27 06:14:19;;;;;;;88.00;40.47;;;;;;;;;;5139280;27;20208;-71
2021/12/27 06:16:47;;;;;;;99.65;42.58;;;;;;;;;;5138668;27;20469;-73
2021/12/27 06:19:18;;;;;;;98.97;45.13;;;;;;;;;;5137847;27;20212;-72
2021/12/27 06:21:48;;;;;;;67.57;37.22;;;;;;;;;;5138984;27;20199;-72
2021/12/27 06:24:16;;;;;;;65.20;36.83;;;;;;;;;;5138686;27;20211;-72
2021/12/27 06:26:43;;;;;;;67.80;36.53;;;;;;;;;;5139379;27;20208;-72
2021/12/27 06:29:11;;;;;;;63.70;36.80;;;;;;;;;;5138765;27;20207;-72
2021/12/27 06:31:38;;;;;;;67.40;36.42;;;;;;;;;;5138655;27;20615;-72
2021/12/27 06:34:07;;;;;;;64.13;35.78;;;;;;;;;;5138248;27;20490;-72
2021/12/27 06:36:34;;;;;;;69.85;37.42;;;;;;;;;;5138234;27;20260;-72
2021/12/27 06:39:05;;;;;;;85.90;40.78;;;;;;;;;;5138735;27;20588;-72
2021/12/27 06:41:32;;;;;;;83.32;40.13;;;;;;;;;;5138478;27;20220;-72
2021/12/27 06:44:00;;;;;;;96.65;42.22;;;;;;;;;;5139019;27;20268;-72
2021/12/27 06:46:28;;;;;;;86.68;39.80;;;;;;;;;;5137518;27;20200;-72
2021/12/27 06:48:56;;;;;;;98.15;44.03;;;;;;;;;;5138220;27;20200;-72
2021/12/27 06:51:25;;;;;;;93.40;41.80;;;;;;;;;;5138529;27;20242;-72
2021/12/27 06:53:52;;;;;;;92.50;41.80;;;;;;;;;;5130350;27;20204;-72
2021/12/27 06:56:21;;;;;;;98.70;43.05;;;;;;;;;;5137290;27;20299;-72
2021/12/27 06:58:49;;;;;;;95.70;43.45;;;;;;;;;;5137534;27;20599;-71
2021/12/27 07:01:20;;;;;;;71.50;38.85;;;;;;;;;;5137326;27;20572;-72
2021/12/27 07:03:47;;;;;;;59.25;35.60;;;;;;;;;;5138258;27;20293;-72
2021/12/27 07:06:15;;;;;;;63.88;38.92;;;;;;;;;;5137897;27;20293;-72
2021/12/27 07:08:43;;;;;;;55.33;34.28;;;;;;;;;;5137201;27;20653;-72
2021/12/27 07:11:10;;;;;;;59.17;35.55;;;;;;;;;;5137560;27;20215;-72
2021/12/27 07:13:39;;;;;;;61.30;34.65;;;;;;;;;;5137118;27;20196;-72
2021/12/27 07:16:10;;;;;;;62.63;36.97;;;;;;;;;;5137854;27;20261;-72
2021/12/27 07:18:40;;;;;;;59.47;35.72;;;;;;;;;;5135426;27;20250;-72
2021/12/27 07:21:08;;;;;;;59.53;36.40;;;;;;;;;;5137034;27;20223;-72
2021/12/27 07:23:36;;;;;;;56.60;34.38;;;;;;;;;;5136871;27;20625;-72
2021/12/27 07:26:04;;;;;;;63.25;34.95;;;;;;;;;;5135608;27;20290;-72
2021/12/27 07:28:32;;;;;;;61.67;36.78;;;;;;;;;;5118877;28;20287;-72
2021/12/27 07:31:01;;;;;;;51.97;34.13;;;;;;;;;;5129253;27;20212;-72
2021/12/27 07:33:28;;;;;;;57.15;33.58;;;;;;;;;;5137980;27;20298;-71
2021/12/27 07:35:56;;;;;;;64.07;37.85;;;;;;;;;;5131244;27;20193;-73
2021/12/27 07:38:24;;;;;;;58.10;34.60;;;;;;;;;;5119137;27;20209;-71
2021/12/27 07:40:52;;;;;;;50.60;33.08;;;;;;;;;;5137172;27;20840;-71
2021/12/27 07:43:20;;;;;;;59.28;34.03;;;;;;;;;;5123514;27;20212;-72
2021/12/27 07:45:47;;;;;;;56.05;35.30;;;;;;;;;;5117172;27;20197;-72
2021/12/27 07:48:16;;;;;;;44.63;30.38;;;;;;;;;;5116411;28;20200;-72
2021/12/27 07:50:44;;;;;;;55.45;34.53;;;;;;;;;;5130928;27;20684;-72
2021/12/27 07:53:12;;;;;;;58.42;36.15;;;;;;;;;;5137178;27;20265;-72
2021/12/27 07:55:40;;;;;;;60.08;35.20;;;;;;;;;;5131826;27;20264;-73
2021/12/27 07:58:08;;;;;;;59.72;39.35;;;;;;;;;;5118968;27;20266;-73
2021/12/27 08:00:35;;;;;;;59.63;35.25;;;;;;;;;;5137462;27;20196;-73
2021/12/27 08:03:06;;;;;;;60.17;37.75;;;;;;;;;;5136458;28;20512;-73
2021/12/27 08:05:44;;;;;;;55.30;35.60;;;;;;;;;;5130946;27;20211;-73
2021/12/27 08:08:21;;;;;;;66.90;39.85;;;;;;;;;;5137165;28;20192;-73
2021/12/27 08:10:54;;;;;;;66.63;39.07;;;;;;;;;;5129814;28;20223;-75
2021/12/27 08:13:24;;;;;;;69.07;40.17;;;;;;;;;;5131949;28;20530;-73
2021/12/27 08:15:52;;;;;;;56.88;36.45;;;;;;;;;;5123843;28;20459;-73
2021/12/27 08:18:22;;;;;;;65.18;37.70;;;;;;;;;;5121409;28;20193;-73
2021/12/27 08:20:53;;;;;;;68.95;42.78;;;;;;;;;;5115519;28;20201;-73
2021/12/27 08:23:21;;;;;;;65.70;40.00;;;;;;;;;;5117368;28;20261;-72
2021/12/27 08:25:48;;;;;;;62.13;39.53;;;;;;;;;;5118333;28;20193;-73
2021/12/27 08:28:19;;;;;;;74.35;46.88;;;;;;;;;;5127081;27;20212;-73
2021/12/27 08:30:47;;;;;;;61.60;37.60;;;;;;;;;;5122116;28;20260;-73
2021/12/27 08:33:14;;;;;;;65.00;38.22;;;;;;;;;;5121582;28;20909;-73
2021/12/27 08:35:42;;;;;;;61.47;37.78;;;;;;;;;;5120947;28;20261;-73
2021/12/27 08:38:11;;;;;;;61.47;36.92;;;;;;;;;;5121463;28;20207;-73
2021/12/27 08:40:39;;;;;;;60.08;36.80;;;;;;;;;;5121474;28;20200;-73
2021/12/27 08:43:22;;;;;;;65.50;38.50;;;;;;;;;;5120684;28;20358;-73
2021/12/27 08:45:50;;;;;;;69.55;37.70;;;;;;;;;;5117343;28;20231;-73
2021/12/27 08:48:19;;;;;;;71.50;40.55;;;;;;;;;;5122074;27;20260;-72
2021/12/27 08:50:47;;;;;;;65.25;40.20;;;;;;;;;;5140906;27;20596;-71
2021/12/27 08:53:16;;;;;;;57.70;36.45;;;;;;;;;;5140274;27;20200;-72
2021/12/27 08:55:44;;;;;;;60.95;36.00;;;;;;;;;;5139053;27;20207;-73
2021/12/27 08:58:12;;;;;;;63.05;39.75;;;;;;;;;;5140260;27;20239;-74
2021/12/27 09:00:44;;;;;;;56.72;36.10;;;;;;;;;;5140863;27;20188;-73
2021/12/27 09:03:24;;;;;;;63.33;37.47;;;;;;;;;;5130218;27;20197;-73
2021/12/27 09:05:52;;;;;;;70.88;42.53;;;;;;;;;;5140432;27;20202;-72
2021/12/27 09:08:22;;;;;;;75.28;38.78;;;;;;;;;;5140245;27;20196;-73
2021/12/27 09:10:50;;;;;;;72.78;41.45;;;;;;;;;;5133778;27;20222;-72
2021/12/27 09:13:19;;;;;;;67.57;38.75;;;;;;;;;;5119280;28;20193;-72
2021/12/27 09:15:47;;;;;;;70.97;41.75;;;;;;;;;;5126568;27;20234;-73
2021/12/27 09:18:18;;;;;;;68.55;41.15;;;;;;;;;;5140045;27;20283;-73
2021/12/27 09:20:50;;;;;;;61.30;39.00;;;;;;;;;;5139211;27;20512;-74
2021/12/27 09:23:25;;;;;;;62.88;40.65;;;;;;;;;;5139718;27;20200;-73
2021/12/27 09:25:59;;;;;;;65.47;36.80;;;;;;;;;;5139095;27;20200;-72
2021/12/27 09:28:31;;;;;;;76.85;48.33;;;;;;;;;;5138399;27;20200;-72
2021/12/27 09:30:58;;;;;;;63.40;39.70;;;;;;;;;;5139930;27;20251;-72
2021/12/27 09:33:31;;;;;;;60.17;37.67;;;;;;;;;;5139199;27;20890;-71
2021/12/27 09:35:59;;;;;;;64.80;45.08;;;;;;;;;;5137778;27;20284;-72
2021/12/27 09:38:34;;;;;;;64.60;42.33;;;;;;;;;;5137782;27;20208;-71
2021/12/27 09:41:01;;;;;;;63.53;38.22;;;;;;;;;;5141451;27;20235;-72
2021/12/27 09:43:37;;;;;;;63.58;39.80;;;;;;;;;;5140173;27;20224;-72
2021/12/27 09:46:11;;;;;;;61.78;39.63;;;;;;;;;;5140882;27;20239;-73
2021/12/27 09:48:39;;;;;;;73.57;42.43;;;;;;;;;;5139461;27;20208;-73
2021/12/27 09:51:08;;;;;;;63.47;41.38;;;;;;;;;;5138594;27;21093;-72
2021/12/27 09:53:39;;;;;;;63.83;40.90;;;;;;;;;;5138139;27;20188;-73
2021/12/27 09:56:09;;;;;;;62.42;42.85;;;;;;;;;;5139728;27;20619;-73
2021/12/27 09:58:36;;;;;;;73.18;44.67;;;;;;;;;;5138092;27;20648;-73
2021/12/27 10:01:06;;;;;;;63.72;37.80;;;;;;;;;;5138338;27;20195;-73
2021/12/27 10:03:48;;;;;;;57.22;39.17;;;;;;;;;;5138682;27;20200;-72
2021/12/27 10:06:17;;;;;;;67.18;43.60;;;;;;;;;;5138644;27;20211;-72
2021/12/27 10:08:47;;;;;;;64.63;45.50;;;;;;;;;;5126559;27;20645;-72
2021/12/27 10:11:22;;;;;;;72.43;42.03;;;;;;;;;;5118566;28;20232;-74
2021/12/27 10:14:00;;;;;;;65.15;40.42;;;;;;;;;;5136995;27;21059;-74
2021/12/27 10:16:33;;;;;;;72.28;41.10;;;;;;;;;;5117738;27;20209;-72
2021/12/27 10:19:04;;;;;;;68.43;42.67;;;;;;;;;;5135029;27;20219;-73
2021/12/27 10:21:41;;;;;;;76.75;51.97;;;;;;;;;;5138301;27;20192;-73
2021/12/27 10:24:19;;;;;;;81.65;47.70;;;;;;;;;;5118185;28;20491;-73
2021/12/27 10:26:49;;;;;;;79.82;49.83;;;;;;;;;;5134958;27;20196;-73
2021/12/27 10:29:18;;;;;;;77.23;48.13;;;;;;;;;;5139502;27;20458;-73
2021/12/27 10:32:10;;;;;;;83.82;47.85;;;;;;;;;;5138414;27;20685;-73
2021/12/27 10:34:40;;;;;;;74.40;46.17;;;;;;;;;;5137667;27;20770;-73
2021/12/27 10:37:37;;;;;;;71.80;43.33;;;;;;;;;;5138159;27;20250;-73
2021/12/27 10:40:30;;;;;;;68.67;41.00;;;;;;;;;;5132369;27;20246;-73
2021/12/27 10:43:02;;;;;;;83.63;50.67;;;;;;;;;;5118320;28;20721;-73
2021/12/27 10:45:55;;;;;;;78.63;47.00;;;;;;;;;;5134445;27;20207;-74
2021/12/27 10:48:25;;;;;;;74.13;47.97;;;;;;;;;;5134356;27;20482;-71
2021/12/27 10:50:53;;;;;;;78.10;45.10;;;;;;;;;;5137961;27;20196;-73
2021/12/27 10:53:21;;;;;;;66.65;42.00;;;;;;;;;;5138154;27;20201;-73
2021/12/27 10:55:58;;;;;;;73.82;44.83;;;;;;;;;;5136942;27;20197;-72
2021/12/27 10:58:29;;;;;;;67.17;41.03;;;;;;;;;;5138213;27;20274;-73
2021/12/27 11:01:04;;;;;;;82.80;50.03;;;;;;;;;;5136749;27;20458;-73
2021/12/27 11:03:33;;;;;;;72.65;45.40;;;;;;;;;;5116938;28;20706;-73
2021/12/27 11:06:05;;;;;;;74.07;47.50;;;;;;;;;;5116873;28;20266;-73
2021/12/27 11:11:28;;;;;;;62.80;41.93;;;;;;;;;;5111501;28;20229;-72
2021/12/27 11:14:02;;;;;;;74.60;45.10;;;;;;;;;;5115996;27;20754;-73
2021/12/27 11:16:30;;;;;;;76.07;44.80;;;;;;;;;;5117140;27;20458;-73
2021/12/27 11:18:59;;;;;;;69.05;41.92;;;;;;;;;;5116271;28;20266;-74
2021/12/27 11:21:30;;;;;;;76.25;45.47;;;;;;;;;;5115555;28;20232;-72
2021/12/27 11:24:02;;;;;;;80.70;46.30;;;;;;;;;;5136935;27;20294;-74
2021/12/27 11:26:31;;;;;;;64.57;43.50;;;;;;;;;;5139284;27;20236;-72
2021/12/27 11:29:25;;;;;;;58.95;37.83;;;;;;;;;;5138193;27;20200;-73
2021/12/27 11:32:15;;;;;;;59.58;41.25;;;;;;;;;;5138098;27;20337;-73
2021/12/27 11:34:54;;;;;;;53.00;38.88;;;;;;;;;;5136533;27;20249;-73
2021/12/27 11:37:22;;;;;;;66.50;39.13;;;;;;;;;;5137697;27;20206;-74
2021/12/27 11:39:50;;;;;;;66.70;42.45;;;;;;;;;;5138757;27;20480;-73
2021/12/27 11:42:18;;;;;;;59.30;41.55;;;;;;;;;;5130416;27;20290;-74
2021/12/27 11:44:53;;;;;;;69.72;44.60;;;;;;;;;;5138086;27;20261;-72
2021/12/27 11:47:24;;;;;;;60.33;40.67;;;;;;;;;;5122859;27;20223;-74
2021/12/27 11:50:00;;;;;;;62.88;41.38;;;;;;;;;;5136717;27;20557;-72
2021/12/27 11:52:31;;;;;;;61.72;42.15;;;;;;;;;;5117232;28;20240;-73
2021/12/27 11:55:01;;;;;;;57.88;39.08;;;;;;;;;;5115839;28;20224;-73
2021/12/27 11:57:56;;;;;;;59.33;41.63;;;;;;;;;;5115962;28;20232;-73
2021/12/27 12:00:40;;;;;;;61.33;39.45;;;;;;;;;;5106635;27;20295;-72
2021/12/27 12:03:12;;;;;;;63.03;42.10;;;;;;;;;;5136547;28;20198;-73
2021/12/27 12:05:45;;;;;;;64.60;43.95;;;;;;;;;;5130364;28;20299;-73
2021/12/27 12:08:49;;;;;;;58.50;41.08;;;;;;;;;;5133848;28;20279;-73
2021/12/27 12:11:34;;;;;;;68.35;44.75;;;;;;;;;;5136569;28;20206;-72
2021/12/27 12:14:29;;;;;;;59.70;38.83;;;;;;;;;;5131802;28;20284;-74
2021/12/27 12:17:03;;;;;;;52.70;39.33;;;;;;;;;;5136567;28;20537;-73
2021/12/27 12:19:42;;;;;;;66.83;48.23;;;;;;;;;;5128611;28;20192;-73
2021/12/27 12:22:33;;;;;;;59.75;41.05;;;;;;;;;;5136730;27;20470;-72
2021/12/27 12:25:17;;;;;;;61.63;43.35;;;;;;;;;;5136293;28;20264;-73
2021/12/27 12:27:55;;;;;;;68.03;41.97;;;;;;;;;;5136399;28;20264;-73
2021/12/27 12:30:25;;;;;;;68.30;44.80;;;;;;;;;;5136410;28;20549;-73
2021/12/27 12:33:03;;;;;;;69.80;47.13;;;;;;;;;;5144077;27;20477;-73
2021/12/27 12:35:43;;;;;;;58.60;42.07;;;;;;;;;;5137606;28;20219;-73
2021/12/27 12:38:12;;;;;;;70.13;45.55;;;;;;;;;;5136088;28;20484;-73
2021/12/27 12:40:40;;;;;;;65.30;47.58;;;;;;;;;;5136267;28;20340;-73
2021/12/27 12:43:10;;;;;;;74.30;44.78;;;;;;;;;;5135485;27;20208;-73
2021/12/27 12:45:39;;;;;;;64.88;46.40;;;;;;;;;;5136018;27;20219;-72
2021/12/27 12:48:08;;;;;;;64.83;44.30;;;;;;;;;;5135520;28;20200;-73
2021/12/27 12:50:37;;;;;;;70.80;46.70;;;;;;;;;;5135119;28;20537;-73
2021/12/27 12:53:06;;;;;;;72.20;44.40;;;;;;;;;;5134260;28;20943;-73
2021/12/27 12:55:46;;;;;;;85.33;48.00;;;;;;;;;;5136290;27;20212;-73
2021/12/27 12:58:22;;;;;;;77.25;50.38;;;;;;;;;;5136157;28;20525;-73
2021/12/27 13:01:20;;;;;;;66.00;44.77;;;;;;;;;;5141157;28;20204;-72
2021/12/27 13:04:00;;;;;;;62.50;42.00;;;;;;;;;;5142117;27;20454;-72
2021/12/27 13:06:31;;;;;;;75.23;48.93;;;;;;;;;;5135701;28;20446;-72
2021/12/27 13:09:04;;;;;;;74.70;44.10;;;;;;;;;;5136562;28;20477;-74
2021/12/27 13:11:34;;;;;;;76.70;50.08;;;;;;;;;;5136748;27;20533;-74
2021/12/27 13:14:02;;;;;;;76.00;46.50;;;;;;;;;;5139153;27;20302;-73
2021/12/27 13:16:39;;;;;;;69.90;47.07;;;;;;;;;;5140013;27;20770;-74
2021/12/27 13:19:11;;;;;;;64.88;44.53;;;;;;;;;;5138082;27;20568;-74
2021/12/27 13:21:43;;;;;;;60.97;41.23;;;;;;;;;;5136570;27;20236;-74
2021/12/27 13:24:11;;;;;;;65.30;45.60;;;;;;;;;;5138998;27;20510;-73
2021/12/27 13:26:42;;;;;;;71.03;49.37;;;;;;;;;;5128595;27;20828;-74
2021/12/27 13:29:23;;;;;;;69.40;48.90;;;;;;;;;;5132549;27;20461;-74
2021/12/27 13:31:51;;;;;;;75.90;48.63;;;;;;;;;;5132703;27;20492;-73
2021/12/27 13:34:21;;;;;;;80.63;45.27;;;;;;;;;;5138059;27;20600;-73
2021/12/27 13:36:49;;;;;;;72.50;46.67;;;;;;;;;;5135743;27;20450;-74
2021/12/27 13:39:19;;;;;;;65.33;45.53;;;;;;;;;;5137490;27;20450;-74
2021/12/27 13:41:50;;;;;;;78.63;46.83;;;;;;;;;;5138851;27;20454;-74
2021/12/27 13:44:28;;;;;;;64.10;42.60;;;;;;;;;;5138842;27;20826;-73
2021/12/27 13:47:06;;;;;;;62.80;43.53;;;;;;;;;;5139447;27;20537;-73
2021/12/27 13:49:38;;;;;;;64.83;44.17;;;;;;;;;;5137569;27;20819;-73
2021/12/27 13:52:22;;;;;;;67.80;54.20;;;;;;;;;;5136925;27;20463;-73
2021/12/27 13:55:05;;;;;;;62.93;47.13;;;;;;;;;;5121427;27;20450;-74
2021/12/27 13:57:43;;;;;;;68.70;43.40;;;;;;;;;;5120873;27;20455;-73
2021/12/27 14:00:14;;;;;;;55.03;41.93;;;;;;;;;;5138476;27;20517;-74
2021/12/27 14:02:47;;;;;;;70.57;45.73;;;;;;;;;;5118141;28;20533;-74
2021/12/27 14:05:28;;;;;;;68.82;53.67;;;;;;;;;;5144815;27;20459;-74
2021/12/27 14:08:13;;;;;;;67.13;49.70;;;;;;;;;;5135968;27;20600;-74
2021/12/27 14:10:50;;;;;;;62.70;47.57;;;;;;;;;;5121975;27;20734;-73
2021/12/27 14:13:18;;;;;;;65.07;47.07;;;;;;;;;;5118335;28;20486;-73
2021/12/27 14:15:46;;;;;;;67.77;46.07;;;;;;;;;;5130088;27;20561;-74
2021/12/27 14:18:22;;;;;;;66.43;43.73;;;;;;;;;;5138453;27;20503;-75
2021/12/27 14:21:05;;;;;;;68.87;45.37;;;;;;;;;;5138370;27;20473;-74
2021/12/27 14:23:35;;;;;;;66.97;43.70;;;;;;;;;;5138107;27;20441;-74
2021/12/27 14:26:10;;;;;;;63.90;45.50;;;;;;;;;;5137828;27;20519;-74
2021/12/27 14:28:42;;;;;;;61.57;42.73;;;;;;;;;;5136048;27;20458;-74
2021/12/27 14:31:25;;;;;;;76.40;49.13;;;;;;;;;;5130277;27;20453;-74
2021/12/27 14:33:53;;;;;;;61.43;48.27;;;;;;;;;;5136756;27;20969;-74
2021/12/27 14:36:22;;;;;;;65.00;45.40;;;;;;;;;;5138264;27;20452;-74
2021/12/27 14:38:50;;;;;;;71.85;46.55;;;;;;;;;;5136868;27;20967;-74
2021/12/27 14:41:21;;;;;;;65.43;45.87;;;;;;;;;;5137707;27;20325;-74